Time,TemperatureF,DewpointF,PressureIn,WindDirection,WindDirectionDegrees,WindSpeedMPH,WindSpeedGustMPH,Humidity,HourlyPrecipIn,Conditions,Clouds,dailyrainin,SoftwareType,DateUTC
2015-01-30 00:02:00,45.1,38.0,29.91,NNE,22,0.0,0.0,76,0.00,,---,0.00,VWS V14.00,2015-01-30 08:02:00,
2015-01-30 00:07:00,44.8,37.7,29.91,NNW,338,0.0,0.0,76,0.00,,---,0.00,VWS V14.00,2015-01-30 08:07:00,
2015-01-30 00:12:00,44.6,37.5,29.91,NNW,338,1.6,2.5,76,0.00,,---,0.00,VWS V14.00,2015-01-30 08:12:00,
2015-01-30 00:17:00,44.4,37.3,29.91,NNW,338,1.3,1.6,76,0.00,,---,0.00,VWS V14.00,2015-01-30 08:17:00,
2015-01-30 00:22:00,44.2,37.5,29.91,WNW,292,2.9,2.9,77,0.00,,---,0.00,VWS V14.00,2015-01-30 08:22:00,
2015-01-30 00:27:00,44.4,37.7,29.91,NW,315,2.5,4.0,77,0.00,,---,0.00,VWS V14.00,2015-01-30 08:27:00,
2015-01-30 00:32:00,44.6,37.8,29.91,WNW,292,2.7,2.7,77,0.00,,---,0.00,VWS V14.00,2015-01-30 08:32:00,
2015-01-30 00:37:00,44.4,37.7,29.91,NW,315,1.3,2.0,77,0.00,,---,0.00,VWS V14.00,2015-01-30 08:37:00,
2015-01-30 00:42:00,44.4,38.0,29.91,NW,315,2.0,4.3,78,0.00,,---,0.00,VWS V14.00,2015-01-30 08:42:00,
2015-01-30 00:47:00,44.6,38.2,29.91,NW,315,2.9,3.8,78,0.00,,---,0.00,VWS V14.00,2015-01-30 08:47:00,
2015-01-30 00:53:00,44.6,38.2,29.91,NNW,338,2.0,2.5,78,0.00,,---,0.00,VWS V14.00,2015-01-30 08:53:00,
2015-01-30 00:58:00,44.6,38.5,29.91,North,0,2.9,3.6,79,0.00,,---,0.00,VWS V14.00,2015-01-30 08:58:00,
2015-01-30 01:06:00,44.8,39.0,29.91,NW,315,3.1,3.6,80,0.00,,---,0.00,VWS V14.00,2015-01-30 09:06:00,
2015-01-30 01:11:00,45.1,39.7,29.91,NW,315,2.7,3.4,81,0.00,,---,0.00,VWS V14.00,2015-01-30 09:11:00,
2015-01-30 01:16:00,45.0,39.2,29.91,NW,315,2.0,4.0,80,0.00,,---,0.00,VWS V14.00,2015-01-30 09:16:00,
2015-01-30 01:21:00,45.0,39.5,29.91,NNW,338,3.1,3.1,81,0.00,,---,0.00,VWS V14.00,2015-01-30 09:21:00,
2015-01-30 01:26:00,45.0,39.2,29.91,NW,315,3.4,3.4,80,0.00,,---,0.00,VWS V14.00,2015-01-30 09:26:00,
2015-01-30 01:31:00,45.1,40.0,29.91,NW,315,1.6,2.9,82,0.00,,---,0.00,VWS V14.00,2015-01-30 09:31:00,
2015-01-30 01:36:00,45.3,40.2,29.91,NW,315,2.2,2.2,82,0.00,,---,0.00,VWS V14.00,2015-01-30 09:36:00,
2015-01-30 01:42:00,45.1,39.7,29.91,WNW,292,1.3,1.6,81,0.00,,---,0.00,VWS V14.00,2015-01-30 09:42:00,
2015-01-30 01:47:00,45.1,39.3,29.91,NW,315,2.0,2.9,80,0.00,,---,0.00,VWS V14.00,2015-01-30 09:47:00,
2015-01-30 01:52:00,45.1,39.3,29.91,WNW,292,2.5,3.8,80,0.00,,---,0.00,VWS V14.00,2015-01-30 09:52:00,
2015-01-30 01:57:00,45.1,39.3,29.91,WNW,292,1.3,2.7,80,0.00,,---,0.00,VWS V14.00,2015-01-30 09:57:00,
2015-01-30 02:02:00,45.1,39.3,29.91,NW,315,2.5,2.9,80,0.00,,---,0.00,VWS V14.00,2015-01-30 10:02:00,
2015-01-30 02:07:00,45.0,39.2,29.91,NW,315,2.7,2.7,80,0.00,,---,0.00,VWS V14.00,2015-01-30 10:07:00,
2015-01-30 02:12:00,45.0,39.2,29.91,NW,315,2.9,2.9,80,0.00,,---,0.00,VWS V14.00,2015-01-30 10:12:00,
2015-01-30 02:17:00,45.0,39.5,29.91,NW,315,2.7,3.8,81,0.00,,---,0.00,VWS V14.00,2015-01-30 10:17:00,
2015-01-30 02:22:00,45.0,39.5,29.91,NW,315,2.9,3.8,81,0.00,,---,0.00,VWS V14.00,2015-01-30 10:22:00,
2015-01-30 02:28:00,44.6,39.1,29.91,NW,315,2.2,3.1,81,0.00,,---,0.00,VWS V14.00,2015-01-30 10:28:00,
2015-01-30 02:34:00,44.4,39.3,29.91,NNW,338,2.7,2.7,82,0.00,,---,0.00,VWS V14.00,2015-01-30 10:34:00,
2015-01-30 02:39:00,44.2,38.8,29.91,NNW,338,0.0,2.5,81,0.00,,---,0.00,VWS V14.00,2015-01-30 10:39:00,
2015-01-30 02:44:00,44.1,38.6,29.91,NNW,338,2.2,2.5,81,0.00,,---,0.00,VWS V14.00,2015-01-30 10:44:00,
2015-01-30 02:49:00,43.9,38.4,29.91,NNW,338,2.5,2.9,81,0.00,,---,0.00,VWS V14.00,2015-01-30 10:49:00,
2015-01-30 02:55:00,43.7,38.6,29.91,NW,315,2.5,3.8,82,0.00,,---,0.00,VWS V14.00,2015-01-30 10:55:00,
2015-01-30 03:01:00,43.5,38.4,29.91,NNW,338,2.5,2.5,82,0.00,,---,0.00,VWS V14.00,2015-01-30 11:01:00,
2015-01-30 03:06:00,43.5,38.7,29.91,WNW,292,2.5,2.9,83,0.00,,---,0.00,VWS V14.00,2015-01-30 11:06:00,
2015-01-30 03:11:00,43.5,38.7,29.91,NNW,338,1.6,1.6,83,0.00,,---,0.00,VWS V14.00,2015-01-30 11:11:00,
2015-01-30 03:16:00,43.3,38.2,29.91,NNW,338,0.0,0.0,82,0.00,,---,0.00,VWS V14.00,2015-01-30 11:16:00,
2015-01-30 03:21:00,43.0,37.9,29.91,NNW,338,0.0,0.0,82,0.00,,---,0.00,VWS V14.00,2015-01-30 11:21:00,
2015-01-30 03:26:00,42.8,37.4,29.88,NNW,338,0.0,0.0,81,0.00,,---,0.00,VWS V14.00,2015-01-30 11:26:00,
2015-01-30 03:31:00,42.4,37.0,29.88,WNW,292,0.9,1.6,81,0.00,,---,0.00,VWS V14.00,2015-01-30 11:31:00,
2015-01-30 03:36:00,42.4,37.3,29.88,WNW,292,0.0,0.0,82,0.00,,---,0.00,VWS V14.00,2015-01-30 11:36:00,
2015-01-30 03:41:00,42.4,37.3,29.88,NNW,338,0.0,0.0,82,0.00,,---,0.00,VWS V14.00,2015-01-30 11:41:00,
2015-01-30 03:46:00,42.3,37.2,29.88,NW,315,0.0,0.0,82,0.00,,---,0.00,VWS V14.00,2015-01-30 11:46:00,
2015-01-30 03:51:00,42.3,37.2,29.88,NE,45,0.0,0.0,82,0.00,,---,0.00,VWS V14.00,2015-01-30 11:51:00,
2015-01-30 03:56:00,42.1,37.0,29.88,NNE,22,0.0,0.0,82,0.00,,---,0.00,VWS V14.00,2015-01-30 11:56:00,
2015-01-30 04:02:00,41.7,36.3,29.88,NW,315,1.3,1.6,81,0.00,,---,0.00,VWS V14.00,2015-01-30 12:02:00,
2015-01-30 04:07:00,41.5,36.2,29.88,NW,315,0.0,0.0,81,0.00,,---,0.00,VWS V14.00,2015-01-30 12:07:00,
2015-01-30 04:12:00,41.4,36.0,29.88,NW,315,0.0,0.0,81,0.00,,---,0.00,VWS V14.00,2015-01-30 12:12:00,
2015-01-30 04:18:00,41.2,35.8,29.88,NW,315,2.0,2.2,81,0.00,,---,0.00,VWS V14.00,2015-01-30 12:18:00,
2015-01-30 04:23:00,41.2,36.1,29.88,West,270,3.1,3.1,82,0.00,,---,0.00,VWS V14.00,2015-01-30 12:23:00,
2015-01-30 04:28:00,41.5,36.8,29.88,NW,315,3.6,3.8,83,0.00,,---,0.00,VWS V14.00,2015-01-30 12:28:00,
2015-01-30 04:33:00,41.7,37.0,29.88,NW,315,1.6,3.1,83,0.00,,---,0.00,VWS V14.00,2015-01-30 12:33:00,
2015-01-30 04:38:00,41.9,37.1,29.88,NW,315,2.2,3.1,83,0.00,,---,0.00,VWS V14.00,2015-01-30 12:38:00,
2015-01-30 04:43:00,42.1,37.6,29.88,NW,315,2.0,2.7,84,0.00,,---,0.00,VWS V14.00,2015-01-30 12:43:00,
2015-01-30 04:48:00,42.1,37.3,29.88,NW,315,2.5,3.1,83,0.00,,---,0.00,VWS V14.00,2015-01-30 12:48:00,
2015-01-30 04:53:00,42.1,37.3,29.88,NW,315,1.3,3.1,83,0.00,,---,0.00,VWS V14.00,2015-01-30 12:53:00,
2015-01-30 04:58:00,42.1,37.3,29.88,NNW,338,2.9,3.1,83,0.00,,---,0.00,VWS V14.00,2015-01-30 12:58:00,
2015-01-30 05:03:00,41.7,37.0,29.88,NNW,338,3.1,3.8,83,0.00,,---,0.00,VWS V14.00,2015-01-30 13:03:00,
2015-01-30 05:08:00,41.9,37.4,29.88,North,0,2.7,2.9,84,0.00,,---,0.00,VWS V14.00,2015-01-30 13:08:00,
2015-01-30 05:13:00,41.9,37.4,29.88,NNW,338,2.0,3.6,84,0.00,,---,0.00,VWS V14.00,2015-01-30 13:13:00,
2015-01-30 05:18:00,41.7,37.2,29.88,North,0,2.7,2.7,84,0.00,,---,0.00,VWS V14.00,2015-01-30 13:18:00,
2015-01-30 05:23:00,41.9,37.4,29.88,NNE,22,3.1,3.6,84,0.00,,---,0.00,VWS V14.00,2015-01-30 13:23:00,
2015-01-30 05:28:00,41.9,37.7,29.88,NNE,22,3.6,3.6,85,0.00,,---,0.00,VWS V14.00,2015-01-30 13:28:00,
2015-01-30 05:33:00,41.9,37.7,29.88,WNW,292,1.6,2.7,85,0.00,,---,0.00,VWS V14.00,2015-01-30 13:33:00,
2015-01-30 05:38:00,41.9,37.7,29.88,North,0,2.5,2.5,85,0.00,,---,0.00,VWS V14.00,2015-01-30 13:38:00,
2015-01-30 05:43:00,41.9,37.7,29.88,North,0,2.5,2.7,85,0.00,,---,0.00,VWS V14.00,2015-01-30 13:43:00,
2015-01-30 05:48:00,41.5,37.1,29.88,North,0,0.0,0.0,84,0.00,,---,0.00,VWS V14.00,2015-01-30 13:48:00,
2015-01-30 05:53:00,41.5,37.4,29.88,North,0,0.0,0.0,85,0.00,,---,0.00,VWS V14.00,2015-01-30 13:53:00,
2015-01-30 05:58:00,41.4,37.2,29.88,NW,315,2.7,2.9,85,0.00,,---,0.00,VWS V14.00,2015-01-30 13:58:00,
2015-01-30 06:03:00,41.2,37.0,29.88,West,270,2.5,2.7,85,0.00,,---,0.00,VWS V14.00,2015-01-30 14:03:00,
2015-01-30 06:08:00,41.2,36.7,29.88,NW,315,2.2,2.5,84,0.00,,---,0.00,VWS V14.00,2015-01-30 14:08:00,
2015-01-30 06:13:00,41.2,37.0,29.85,NW,315,2.9,3.4,85,0.00,,---,0.00,VWS V14.00,2015-01-30 14:13:00,
2015-01-30 06:18:00,41.4,37.5,29.85,WNW,292,2.0,2.9,86,0.00,,---,0.00,VWS V14.00,2015-01-30 14:18:00,
2015-01-30 06:23:00,41.5,37.7,29.85,NNW,338,2.2,2.5,86,0.00,,---,0.00,VWS V14.00,2015-01-30 14:23:00,
2015-01-30 06:28:00,41.5,37.7,29.88,ENE,68,1.6,2.5,86,0.00,,---,0.00,VWS V14.00,2015-01-30 14:28:00,
2015-01-30 06:33:00,41.4,37.5,29.88,NNW,338,0.0,2.0,86,0.00,,---,0.00,VWS V14.00,2015-01-30 14:33:00,
2015-01-30 06:38:00,41.2,37.0,29.88,WNW,292,2.2,2.5,85,0.00,,---,0.00,VWS V14.00,2015-01-30 14:38:00,
2015-01-30 06:43:00,40.8,36.7,29.88,WNW,292,1.1,1.3,85,0.00,,---,0.00,VWS V14.00,2015-01-30 14:43:00,
2015-01-30 06:48:00,40.6,36.5,29.88,NW,315,0.0,0.9,85,0.00,,---,0.00,VWS V14.00,2015-01-30 14:48:00,
2015-01-30 06:54:00,40.5,36.3,29.88,NW,315,0.0,0.0,85,0.00,,---,0.00,VWS V14.00,2015-01-30 14:54:00,
2015-01-30 06:59:00,40.5,36.3,29.88,NW,315,0.0,0.0,85,0.00,,---,0.00,VWS V14.00,2015-01-30 14:59:00,
2015-01-30 07:04:00,40.5,36.3,29.88,NW,315,0.0,0.0,85,0.00,,---,0.00,VWS V14.00,2015-01-30 15:04:00,
2015-01-30 07:09:00,40.3,36.1,29.88,NW,315,0.0,1.1,85,0.00,,---,0.00,VWS V14.00,2015-01-30 15:09:00,
2015-01-30 07:14:00,39.9,35.5,29.88,NW,315,0.0,0.0,84,0.00,,---,0.00,VWS V14.00,2015-01-30 15:14:00,
2015-01-30 07:19:00,39.7,35.3,29.88,NW,315,1.1,1.3,84,0.00,,---,0.00,VWS V14.00,2015-01-30 15:19:00,
2015-01-30 07:24:00,39.6,35.1,29.88,North,0,2.7,2.7,84,0.00,,---,0.00,VWS V14.00,2015-01-30 15:24:00,
2015-01-30 07:29:00,39.6,35.4,29.88,NNE,22,2.0,2.2,85,0.00,,---,0.00,VWS V14.00,2015-01-30 15:29:00,
2015-01-30 07:34:00,39.4,35.2,29.88,NNE,22,0.0,0.0,85,0.00,,---,0.00,VWS V14.00,2015-01-30 15:34:00,
2015-01-30 07:39:00,39.4,35.2,29.91,NNE,22,0.0,0.0,85,0.00,,---,0.00,VWS V14.00,2015-01-30 15:39:00,
2015-01-30 07:44:00,39.6,35.4,29.91,NNE,22,0.0,0.0,85,0.00,,---,0.00,VWS V14.00,2015-01-30 15:44:00,
2015-01-30 07:49:00,39.6,35.4,29.91,NNE,22,0.0,1.1,85,0.00,,---,0.00,VWS V14.00,2015-01-30 15:49:00,
2015-01-30 07:54:00,39.7,35.6,29.88,NNE,22,1.6,1.6,85,0.00,,---,0.00,VWS V14.00,2015-01-30 15:54:00,
2015-01-30 07:59:00,40.5,36.9,29.88,NNE,22,0.9,1.3,87,0.00,,---,0.00,VWS V14.00,2015-01-30 15:59:00,
2015-01-30 08:04:00,40.8,37.3,29.88,NNW,338,0.0,0.0,87,0.00,,---,0.00,VWS V14.00,2015-01-30 16:04:00,
2015-01-30 08:09:00,41.2,37.6,29.88,South,180,0.0,0.9,87,0.00,,---,0.00,VWS V14.00,2015-01-30 16:09:00,
2015-01-30 08:14:00,41.7,38.1,29.88,East,90,0.0,0.0,87,0.00,,---,0.00,VWS V14.00,2015-01-30 16:14:00,
2015-01-30 08:19:00,42.4,39.1,29.88,NE,45,1.1,1.3,88,0.00,,---,0.00,VWS V14.00,2015-01-30 16:19:00,
2015-01-30 08:24:00,43.3,40.0,29.88,NNE,22,2.5,2.5,88,0.00,,---,0.00,VWS V14.00,2015-01-30 16:24:00,
2015-01-30 08:29:00,45.0,42.5,29.88,NNW,338,3.1,3.6,91,0.00,,---,0.00,VWS V14.00,2015-01-30 16:29:00,
2015-01-30 08:34:00,47.1,45.2,29.88,North,0,2.9,3.4,93,0.00,,---,0.00,VWS V14.00,2015-01-30 16:34:00,
2015-01-30 08:39:00,48.4,46.5,29.88,NE,45,2.2,3.6,93,0.00,,---,0.00,VWS V14.00,2015-01-30 16:39:00,
2015-01-30 08:44:00,50.2,47.7,29.88,North,0,2.0,2.7,91,0.00,,---,0.00,VWS V14.00,2015-01-30 16:44:00,
2015-01-30 08:49:00,52.2,48.4,29.88,NNW,338,2.2,2.5,87,0.00,,---,0.00,VWS V14.00,2015-01-30 16:49:00,
2015-01-30 08:54:00,53.6,46.2,29.85,North,0,2.7,4.3,76,0.00,,---,0.00,VWS V14.00,2015-01-30 16:54:00,
2015-01-30 08:59:00,55.6,46.3,29.85,NW,315,3.8,3.8,71,0.00,,---,0.00,VWS V14.00,2015-01-30 16:59:00,
2015-01-30 09:04:00,57.0,45.8,29.85,NW,315,3.1,3.1,66,0.00,,---,0.00,VWS V14.00,2015-01-30 17:04:00,
2015-01-30 09:09:00,58.1,44.3,29.85,WNW,292,4.7,5.4,60,0.00,,---,0.00,VWS V14.00,2015-01-30 17:09:00,
2015-01-30 09:14:00,58.8,43.2,29.85,NW,315,3.6,3.6,56,0.00,,---,0.00,VWS V14.00,2015-01-30 17:14:00,
2015-01-30 09:20:00,59.7,39.5,29.85,NNW,338,4.3,6.0,47,0.00,,---,0.00,VWS V14.00,2015-01-30 17:20:00,
2015-01-30 09:25:00,60.1,39.2,29.85,NNW,338,4.0,4.0,46,0.00,,---,0.00,VWS V14.00,2015-01-30 17:25:00,
2015-01-30 09:30:00,61.3,39.8,29.85,West,270,3.8,7.4,45,0.00,,---,0.00,VWS V14.00,2015-01-30 17:30:00,
2015-01-30 09:35:00,61.9,39.8,29.85,NNW,338,2.7,5.8,44,0.00,,---,0.00,VWS V14.00,2015-01-30 17:35:00,
2015-01-30 09:40:00,62.8,41.2,29.85,NW,315,3.6,3.6,45,0.00,,---,0.00,VWS V14.00,2015-01-30 17:40:00,
2015-01-30 09:45:00,63.5,40.0,29.85,NW,315,3.8,4.3,42,0.00,,---,0.00,VWS V14.00,2015-01-30 17:45:00,
2015-01-30 09:50:00,63.9,39.1,29.85,NNW,338,3.1,4.9,40,0.00,,---,0.00,VWS V14.00,2015-01-30 17:50:00,
2015-01-30 09:55:00,64.4,38.9,29.85,NW,315,4.0,4.0,39,0.00,,---,0.00,VWS V14.00,2015-01-30 17:55:00,
2015-01-30 10:00:00,65.3,39.1,29.85,NW,315,5.8,5.8,38,0.00,,---,0.00,VWS V14.00,2015-01-30 18:00:00,
2015-01-30 10:05:00,65.7,38.7,29.85,NW,315,4.3,6.5,37,0.00,,---,0.00,VWS V14.00,2015-01-30 18:05:00,
2015-01-30 10:10:00,65.8,38.2,29.85,NW,315,6.3,6.3,36,0.00,,---,0.00,VWS V14.00,2015-01-30 18:10:00,
2015-01-30 10:15:00,66.2,39.2,29.85,NNW,338,7.6,7.6,37,0.00,,---,0.00,VWS V14.00,2015-01-30 18:15:00,
2015-01-30 10:20:00,66.6,38.8,29.85,WNW,292,3.4,5.8,36,0.00,,---,0.00,VWS V14.00,2015-01-30 18:20:00,
2015-01-30 10:25:00,67.1,39.3,29.85,NW,315,3.8,4.9,36,0.00,,---,0.00,VWS V14.00,2015-01-30 18:25:00,
2015-01-30 10:30:00,67.6,39.0,29.85,NNW,338,7.2,7.2,35,0.00,,---,0.00,VWS V14.00,2015-01-30 18:30:00,
2015-01-30 10:35:00,68.2,38.8,29.85,NNW,338,7.4,7.4,34,0.00,,---,0.00,VWS V14.00,2015-01-30 18:35:00,
2015-01-30 10:40:00,68.5,39.1,29.82,North,0,6.9,6.9,34,0.00,,---,0.00,VWS V14.00,2015-01-30 18:40:00,
2015-01-30 10:45:00,68.9,39.4,29.82,NW,315,8.1,8.1,34,0.00,,---,0.00,VWS V14.00,2015-01-30 18:45:00,
2015-01-30 10:50:00,69.4,39.1,29.82,West,270,7.6,7.6,33,0.00,,---,0.00,VWS V14.00,2015-01-30 18:50:00,
2015-01-30 10:55:00,69.6,39.3,29.82,WNW,292,5.8,7.6,33,0.00,,---,0.00,VWS V14.00,2015-01-30 18:55:00,
2015-01-30 11:00:00,70.0,38.8,29.82,NNW,338,5.6,11.0,32,0.00,,---,0.00,VWS V14.00,2015-01-30 19:00:00,
2015-01-30 11:06:00,70.2,39.0,29.82,WSW,248,10.1,10.1,32,0.00,,---,0.00,VWS V14.00,2015-01-30 19:06:00,
2015-01-30 11:11:00,70.0,38.8,29.82,NW,315,7.8,7.8,32,0.00,,---,0.00,VWS V14.00,2015-01-30 19:11:00,
2015-01-30 11:16:00,70.2,39.0,29.82,NW,315,5.8,6.5,32,0.00,,---,0.00,VWS V14.00,2015-01-30 19:16:00,
2015-01-30 11:21:00,70.9,39.6,29.82,NNW,338,8.7,10.1,32,0.00,,---,0.00,VWS V14.00,2015-01-30 19:21:00,
2015-01-30 11:26:00,70.7,39.4,29.82,NW,315,7.4,10.7,32,0.00,,---,0.00,VWS V14.00,2015-01-30 19:26:00,
2015-01-30 11:31:00,70.3,36.6,29.82,NNW,338,5.8,13.0,29,0.00,,---,0.00,VWS V14.00,2015-01-30 19:31:00,
2015-01-30 11:36:00,70.7,37.8,29.82,WNW,292,8.5,13.0,30,0.00,,---,0.00,VWS V14.00,2015-01-30 19:36:00,
2015-01-30 11:41:00,71.2,38.2,29.79,NNW,338,7.4,11.0,30,0.00,,---,0.00,VWS V14.00,2015-01-30 19:41:00,
2015-01-30 11:46:00,71.6,36.8,29.79,NNW,338,10.1,11.9,28,0.00,,---,0.00,VWS V14.00,2015-01-30 19:46:00,
2015-01-30 11:51:00,72.3,38.3,29.79,NW,315,5.6,10.3,29,0.00,,---,0.00,VWS V14.00,2015-01-30 19:51:00,
2015-01-30 11:57:00,72.9,37.9,29.79,WNW,292,8.1,10.3,28,0.00,,---,0.00,VWS V14.00,2015-01-30 19:57:00,
2015-01-30 12:02:00,73.0,37.1,29.79,NNW,338,10.3,10.3,27,0.00,,---,0.00,VWS V14.00,2015-01-30 20:02:00,
2015-01-30 12:07:00,73.4,36.5,29.79,North,0,7.6,11.0,26,0.00,,---,0.00,VWS V14.00,2015-01-30 20:07:00,
2015-01-30 12:12:00,73.6,36.6,29.76,North,0,10.5,10.5,26,0.00,,---,0.00,VWS V14.00,2015-01-30 20:12:00,
2015-01-30 12:17:00,74.5,36.4,29.76,NNW,338,6.3,7.4,25,0.00,,---,0.00,VWS V14.00,2015-01-30 20:17:00,
2015-01-30 12:22:00,74.7,36.5,29.76,NW,315,5.6,5.6,25,0.00,,---,0.00,VWS V14.00,2015-01-30 20:22:00,
2015-01-30 12:27:00,74.7,35.5,29.76,WNW,292,11.4,11.4,24,0.00,,---,0.00,VWS V14.00,2015-01-30 20:27:00,
2015-01-30 12:32:00,74.3,35.2,29.76,NW,315,7.8,10.5,24,0.00,,---,0.00,VWS V14.00,2015-01-30 20:32:00,
2015-01-30 12:38:00,74.3,35.2,29.76,NNW,338,10.1,12.3,24,0.00,,---,0.00,VWS V14.00,2015-01-30 20:38:00,
2015-01-30 12:43:00,74.7,35.5,29.74,NNW,338,5.8,14.8,24,0.00,,---,0.00,VWS V14.00,2015-01-30 20:43:00,
2015-01-30 12:48:00,74.8,35.7,29.74,NW,315,4.0,12.5,24,0.00,,---,0.00,VWS V14.00,2015-01-30 20:48:00,
2015-01-30 12:53:00,75.4,35.0,29.74,NW,315,4.9,9.4,23,0.00,,---,0.00,VWS V14.00,2015-01-30 20:53:00,
2015-01-30 12:58:00,75.7,35.3,29.74,West,270,6.5,10.3,23,0.00,,---,0.00,VWS V14.00,2015-01-30 20:58:00,
2015-01-30 13:04:00,75.9,35.5,29.74,NW,315,8.5,12.8,23,0.00,,---,0.00,VWS V14.00,2015-01-30 21:04:00,
2015-01-30 13:09:00,75.7,35.3,29.74,NNW,338,8.1,13.2,23,0.00,,---,0.00,VWS V14.00,2015-01-30 21:09:00,
2015-01-30 13:14:00,75.6,35.2,29.74,NNW,338,7.6,8.7,23,0.00,,---,0.00,VWS V14.00,2015-01-30 21:14:00,
2015-01-30 13:19:00,75.4,35.0,29.74,WNW,292,10.5,10.5,23,0.00,,---,0.00,VWS V14.00,2015-01-30 21:19:00,
2015-01-30 13:25:00,75.2,34.9,29.74,NNW,338,9.6,10.5,23,0.00,,---,0.00,VWS V14.00,2015-01-30 21:25:00,
2015-01-30 13:30:00,75.2,33.8,29.74,North,0,11.9,11.9,22,0.00,,---,0.00,VWS V14.00,2015-01-30 21:30:00,
2015-01-30 13:35:00,75.2,34.9,29.74,NNW,338,6.0,9.6,23,0.00,,---,0.00,VWS V14.00,2015-01-30 21:35:00,
2015-01-30 13:40:00,75.2,33.8,29.74,NNW,338,7.8,12.3,22,0.00,,---,0.00,VWS V14.00,2015-01-30 21:40:00,
2015-01-30 13:45:00,75.4,33.9,29.74,North,0,5.4,7.8,22,0.00,,---,0.00,VWS V14.00,2015-01-30 21:45:00,
2015-01-30 13:50:00,75.7,34.2,29.74,NNW,338,7.6,10.1,22,0.00,,---,0.00,VWS V14.00,2015-01-30 21:50:00,
2015-01-30 13:55:00,76.1,34.5,29.71,NNW,338,8.7,11.4,22,0.00,,---,0.00,VWS V14.00,2015-01-30 21:55:00,
2015-01-30 14:00:00,76.5,34.8,29.71,NW,315,8.7,8.7,22,0.00,,---,0.00,VWS V14.00,2015-01-30 22:00:00,
2015-01-30 14:05:00,76.8,35.1,29.71,WNW,292,4.9,6.0,22,0.00,,---,0.00,VWS V14.00,2015-01-30 22:05:00,
2015-01-30 14:10:00,77.0,34.1,29.71,West,270,7.6,8.1,21,0.00,,---,0.00,VWS V14.00,2015-01-30 22:10:00,
2015-01-30 14:15:00,77.7,34.7,29.71,NNW,338,8.5,9.8,21,0.00,,---,0.00,VWS V14.00,2015-01-30 22:15:00,
2015-01-30 14:20:00,77.4,34.4,29.71,NW,315,9.2,9.2,21,0.00,,---,0.00,VWS V14.00,2015-01-30 22:20:00,
2015-01-30 14:25:00,77.9,34.9,29.71,NW,315,4.9,6.5,21,0.00,,---,0.00,VWS V14.00,2015-01-30 22:25:00,
2015-01-30 14:30:00,78.3,35.2,29.71,NW,315,9.8,9.8,21,0.00,,---,0.00,VWS V14.00,2015-01-30 22:30:00,
2015-01-30 14:35:00,78.1,35.0,29.71,NW,315,7.6,8.7,21,0.00,,---,0.00,VWS V14.00,2015-01-30 22:35:00,
2015-01-30 14:40:00,78.3,35.2,29.68,WNW,292,7.6,7.6,21,0.00,,---,0.00,VWS V14.00,2015-01-30 22:40:00,
2015-01-30 14:45:00,78.4,35.3,29.68,WNW,292,7.6,10.5,21,0.00,,---,0.00,VWS V14.00,2015-01-30 22:45:00,
2015-01-30 14:50:00,78.6,35.5,29.68,NNW,338,6.5,11.0,21,0.00,,---,0.00,VWS V14.00,2015-01-30 22:50:00,
2015-01-30 14:55:00,77.9,34.9,29.68,NW,315,6.3,7.6,21,0.00,,---,0.00,VWS V14.00,2015-01-30 22:55:00,
2015-01-30 15:00:00,77.5,34.6,29.68,North,0,8.5,10.1,21,0.00,,---,0.00,VWS V14.00,2015-01-30 23:00:00,
2015-01-30 15:05:00,77.4,34.4,29.68,NW,315,7.2,8.5,21,0.00,,---,0.00,VWS V14.00,2015-01-30 23:05:00,
2015-01-30 15:10:00,77.2,34.3,29.68,NNW,338,7.6,7.6,21,0.00,,---,0.00,VWS V14.00,2015-01-30 23:10:00,
2015-01-30 15:15:00,77.2,34.3,29.68,NW,315,10.1,10.1,21,0.00,,---,0.00,VWS V14.00,2015-01-30 23:15:00,
2015-01-30 15:20:00,76.6,35.0,29.68,NW,315,6.3,6.5,22,0.00,,---,0.00,VWS V14.00,2015-01-30 23:20:00,
2015-01-30 15:25:00,76.3,33.5,29.68,NNW,338,7.4,11.9,21,0.00,,---,0.00,VWS V14.00,2015-01-30 23:25:00,
2015-01-30 15:31:00,75.6,32.9,29.68,North,0,6.5,8.5,21,0.00,,---,0.00,VWS V14.00,2015-01-30 23:31:00,
2015-01-30 15:36:00,75.6,34.1,29.68,NNW,338,5.6,12.5,22,0.00,,---,0.00,VWS V14.00,2015-01-30 23:36:00,
2015-01-30 15:41:00,75.2,33.8,29.68,NW,315,2.7,3.1,22,0.00,,---,0.00,VWS V14.00,2015-01-30 23:41:00,
2015-01-30 15:46:00,75.2,33.8,29.68,WNW,292,2.5,5.8,22,0.00,,---,0.00,VWS V14.00,2015-01-30 23:46:00,
2015-01-30 15:51:00,75.2,33.8,29.68,North,0,7.6,7.6,22,0.00,,---,0.00,VWS V14.00,2015-01-30 23:51:00,
2015-01-30 15:56:00,75.2,32.6,29.68,NW,315,7.8,11.0,21,0.00,,---,0.00,VWS V14.00,2015-01-30 23:56:00,
2015-01-30 16:01:00,74.8,33.5,29.68,NNW,338,6.5,11.0,22,0.00,,---,0.00,VWS V14.00,2015-01-31 00:01:00,
2015-01-30 16:06:00,74.7,33.3,29.68,NNW,338,8.1,10.7,22,0.00,,---,0.00,VWS V14.00,2015-01-31 00:06:00,
2015-01-30 16:11:00,74.3,33.0,29.68,NW,315,5.6,11.0,22,0.00,,---,0.00,VWS V14.00,2015-01-31 00:11:00,
2015-01-30 16:16:00,73.9,32.7,29.68,NNW,338,5.4,6.3,22,0.00,,---,0.00,VWS V14.00,2015-01-31 00:16:00,
2015-01-30 16:21:00,73.6,32.4,29.68,WNW,292,6.9,6.9,22,0.00,,---,0.00,VWS V14.00,2015-01-31 00:21:00,
2015-01-30 16:26:00,73.4,32.3,29.68,NNW,338,5.6,6.3,22,0.00,,---,0.00,VWS V14.00,2015-01-31 00:26:00,
2015-01-30 16:31:00,73.2,32.1,29.68,NW,315,5.6,13.9,22,0.00,,---,0.00,VWS V14.00,2015-01-31 00:31:00,
2015-01-30 16:36:00,73.0,32.0,29.68,NW,315,5.6,8.5,22,0.00,,---,0.00,VWS V14.00,2015-01-31 00:36:00,
2015-01-30 16:41:00,72.5,31.5,29.68,North,0,6.3,10.5,22,0.00,,---,0.00,VWS V14.00,2015-01-31 00:41:00,
2015-01-30 16:46:00,72.0,31.1,29.68,WNW,292,4.0,6.5,22,0.00,,---,0.00,VWS V14.00,2015-01-31 00:46:00,
2015-01-30 16:51:00,71.8,30.9,29.68,WNW,292,5.8,5.8,22,0.00,,---,0.00,VWS V14.00,2015-01-31 00:51:00,
2015-01-30 16:56:00,71.4,30.6,29.68,NW,315,3.1,8.1,22,0.00,,---,0.00,VWS V14.00,2015-01-31 00:56:00,
2015-01-30 17:01:00,71.4,30.6,29.68,WNW,292,3.8,5.4,22,0.00,,---,0.00,VWS V14.00,2015-01-31 01:01:00,
2015-01-30 17:06:00,71.4,30.6,29.68,NW,315,4.9,4.9,22,0.00,,---,0.00,VWS V14.00,2015-01-31 01:06:00,
2015-01-30 17:11:00,71.4,30.6,29.71,NW,315,4.9,4.9,22,0.00,,---,0.00,VWS V14.00,2015-01-31 01:11:00,
2015-01-30 17:17:00,71.4,30.6,29.71,WNW,292,3.1,4.3,22,0.00,,---,0.00,VWS V14.00,2015-01-31 01:17:00,
2015-01-30 17:22:00,68.0,28.9,29.71,NW,315,2.9,2.9,23,0.00,,---,0.00,VWS V14.00,2015-01-31 01:22:00,
2015-01-30 17:27:00,67.3,28.2,29.71,WNW,292,2.9,2.9,23,0.00,,---,0.00,VWS V14.00,2015-01-31 01:27:00,
2015-01-30 17:32:00,66.2,27.3,29.71,WNW,292,2.5,3.4,23,0.00,,---,0.00,VWS V14.00,2015-01-31 01:32:00,
2015-01-30 17:37:00,65.5,27.8,29.71,NW,315,0.0,1.6,24,0.00,,---,0.00,VWS V14.00,2015-01-31 01:37:00,
2015-01-30 17:43:00,64.4,26.9,29.71,WNW,292,2.5,2.5,24,0.00,,---,0.00,VWS V14.00,2015-01-31 01:43:00,